Time;durP1;ratioP1;P1;durP2;ratioP2;P2;SDS_P1;SDS_P2;PMS_P1;PMS_P2;Temp;Humidity;BMP_temperature;BMP_pressure;BME280_temperature;BME280_humidity;BME280_pressure;Samples;Min_cycle;Max_cycle;Signal;HPM_P1;HPM_P2
2022/08/04 00:01:39;;;;;;;;;;;28.70;58.30;;;;;;5041500;28;19921;-60
2022/08/04 00:04:20;;;;;;;;;;;28.70;58.10;;;;;;5042446;28;19995;-60
2022/08/04 00:06:51;;;;;;;;;;;28.70;58.30;;;;;;5039658;28;19925;-60
2022/08/04 00:09:21;;;;;;;;;;;28.70;58.20;;;;;;5038717;28;19925;-60
2022/08/04 00:11:47;;;;;;;;;;;28.70;57.80;;;;;;5040768;28;19952;-60
2022/08/04 00:14:13;;;;;;;;;;;28.80;57.80;;;;;;5041569;28;19999;-60
2022/08/04 00:16:39;;;;;;;;;;;28.80;57.90;;;;;;5041772;28;19928;-60
2022/08/04 00:19:09;;;;;;;;;;;28.80;58.50;;;;;;5038500;28;19925;-60
2022/08/04 00:21:35;;;;;;;;;;;28.70;58.20;;;;;;5038703;28;20007;-60
2022/08/04 00:24:00;;;;;;;;;;;28.60;58.40;;;;;;5042131;28;20276;-60
2022/08/04 00:26:26;;;;;;;;;;;28.60;58.10;;;;;;5038015;28;19920;-60
2022/08/04 00:28:51;;;;;;;;;;;28.60;58.30;;;;;;5042743;28;20320;-60
2022/08/04 00:31:17;;;;;;;;;;;28.70;58.20;;;;;;5045177;28;19956;-60
2022/08/04 00:33:43;;;;;;;;;;;28.60;58.10;;;;;;5048628;28;19939;-60
2022/08/04 00:36:09;;;;;;;;;;;28.60;58.00;;;;;;5044384;28;19920;-60
2022/08/04 00:38:35;;;;;;;;;;;28.60;58.30;;;;;;5039860;28;19975;-60
2022/08/04 00:41:08;;;;;;;;;;;28.60;58.30;;;;;;5045960;28;19912;-60
2022/08/04 00:43:37;;;;;;;;;;;28.60;58.20;;;;;;5045454;28;19921;-60
2022/08/04 00:46:21;;;;;;;;;;;28.50;58.00;;;;;;5041989;28;19913;-60
2022/08/04 00:48:54;;;;;;;;;;;28.50;58.20;;;;;;5042568;28;19912;-60
2022/08/04 00:51:39;;;;;;;;;;;28.60;58.40;;;;;;5046137;28;20277;-60
2022/08/04 00:54:11;;;;;;;;;;;28.60;58.30;;;;;;5045016;28;19921;-60
2022/08/04 00:56:48;;;;;;;;;;;28.60;57.80;;;;;;5044175;28;19939;-59
2022/08/04 00:59:28;;;;;;;;;;;28.60;57.50;;;;;;5043555;28;19928;-60
2022/08/04 01:02:00;;;;;;;;;;;28.60;57.80;;;;;;5029505;28;19917;-60
2022/08/04 01:04:35;;;;;;;;;;;28.70;57.70;;;;;;5061944;28;20446;-60
2022/08/04 01:07:00;;;;;;;;;;;28.60;57.40;;;;;;5044588;28;19913;-60
2022/08/04 01:09:32;;;;;;;;;;;28.70;57.50;;;;;;5045745;28;20485;-60
2022/08/04 01:12:05;;;;;;;;;;;28.60;57.30;;;;;;5047330;28;19920;-60
2022/08/04 01:14:57;;;;;;;;;;;28.70;57.30;;;;;;5043611;28;19940;-60
2022/08/04 01:17:35;;;;;;;;;;;28.70;57.10;;;;;;5040952;28;19921;-60
2022/08/04 01:20:10;;;;;;;;;;;28.70;58.00;;;;;;5041783;28;19912;-60
2022/08/04 01:22:49;;;;;;;;;;;28.60;57.50;;;;;;5046410;28;19956;-60
2022/08/04 01:25:20;;;;;;;;;;;28.50;57.70;;;;;;5044771;28;19920;-60
2022/08/04 01:27:58;;;;;;;;;;;28.50;57.80;;;;;;5042682;28;20008;-60
2022/08/04 01:30:24;;;;;;;;;;;28.40;57.80;;;;;;5043966;28;19913;-60
2022/08/04 01:32:56;;;;;;;;;;;28.40;57.90;;;;;;5043683;28;20026;-60
2022/08/04 01:35:23;;;;;;;;;;;28.50;57.60;;;;;;5043752;28;20412;-60
2022/08/04 01:37:51;;;;;;;;;;;28.60;57.20;;;;;;5040323;28;19921;-60
2022/08/04 01:40:17;;;;;;;;;;;28.50;57.60;;;;;;5044813;28;19967;-60
2022/08/04 01:42:44;;;;;;;;;;;28.50;57.70;;;;;;5041158;28;19966;-60
2022/08/04 01:45:10;;;;;;;;;;;28.50;57.30;;;;;;5043589;28;19920;-60
2022/08/04 01:47:36;;;;;;;;;;;28.50;57.10;;;;;;5057426;28;20373;-60
2022/08/04 01:50:05;;;;;;;;;;;28.50;57.10;;;;;;5047272;28;19913;-60
2022/08/04 01:52:31;;;;;;;;;;;28.60;57.20;;;;;;5044497;28;20380;-60
2022/08/04 01:54:56;;;;;;;;;;;28.50;57.30;;;;;;5045051;28;19923;-60
2022/08/04 01:57:22;;;;;;;;;;;28.40;57.60;;;;;;5041868;28;19913;-60
2022/08/04 01:59:47;;;;;;;;;;;28.40;57.70;;;;;;5044915;28;19938;-60
2022/08/04 02:02:13;;;;;;;;;;;28.30;57.50;;;;;;5042668;28;19964;-60
2022/08/04 02:04:38;;;;;;;;;;;28.30;57.70;;;;;;5044285;28;19929;-60
2022/08/04 02:07:23;;;;;;;;;;;28.30;58.00;;;;;;5041268;28;20437;-60
2022/08/04 02:09:59;;;;;;;;;;;28.20;58.20;;;;;;5045742;28;19923;-60
2022/08/04 02:12:37;;;;;;;;;;;28.20;58.20;;;;;;5040456;28;19921;-60
2022/08/04 02:15:07;;;;;;;;;;;28.20;58.00;;;;;;5037249;28;20050;-60
2022/08/04 02:17:42;;;;;;;;;;;28.30;57.60;;;;;;5044816;28;19917;-60
2022/08/04 02:20:42;;;;;;;;;;;28.30;57.40;;;;;;5041142;28;23333;-60
2022/08/04 02:23:14;;;;;;;;;;;28.40;57.00;;;;;;4966027;28;20640;-60
2022/08/04 02:25:44;;;;;;;;;;;28.50;57.10;;;;;;5031286;28;20038;-60
2022/08/04 02:28:11;;;;;;;;;;;28.50;56.80;;;;;;5039988;28;20011;-60
2022/08/04 02:30:53;;;;;;;;;;;28.50;57.00;;;;;;5035798;28;19964;-60
2022/08/04 02:33:21;;;;;;;;;;;28.50;57.20;;;;;;5043528;28;19917;-60
2022/08/04 02:35:47;;;;;;;;;;;28.40;57.20;;;;;;5042964;28;20435;-60
2022/08/04 02:38:12;;;;;;;;;;;28.30;57.40;;;;;;5055740;28;19913;-60
2022/08/04 02:40:38;;;;;;;;;;;28.30;57.40;;;;;;5043129;28;19995;-60
2022/08/04 02:43:03;;;;;;;;;;;28.30;57.50;;;;;;5045260;28;19928;-60
2022/08/04 02:45:29;;;;;;;;;;;28.30;57.50;;;;;;5045791;28;19920;-60
2022/08/04 02:47:54;;;;;;;;;;;28.30;57.70;;;;;;5042043;28;19913;-60
2022/08/04 02:50:20;;;;;;;;;;;28.30;57.50;;;;;;5039206;28;19973;-60
2022/08/04 02:52:46;;;;;;;;;;;28.30;57.20;;;;;;5057207;28;20007;-60
2022/08/04 02:55:11;;;;;;;;;;;28.40;57.30;;;;;;5040871;28;19924;-60
2022/08/04 02:57:37;;;;;;;;;;;28.40;57.10;;;;;;5057077;28;19912;-60
2022/08/04 03:00:08;;;;;;;;;;;28.40;56.60;;;;;;5058586;28;19913;-60
2022/08/04 03:02:37;;;;;;;;;;;28.50;57.00;;;;;;5042347;28;20319;-60
2022/08/04 03:05:06;;;;;;;;;;;28.50;56.80;;;;;;5043762;28;19913;-61
2022/08/04 03:07:47;;;;;;;;;;;28.40;56.40;;;;;;5041532;28;19961;-60
2022/08/04 03:10:36;;;;;;;;;;;28.50;57.00;;;;;;5040769;28;19920;-60
2022/08/04 03:13:20;;;;;;;;;;;28.40;56.20;;;;;;5042463;28;19925;-59
2022/08/04 03:15:47;;;;;;;;;;;28.40;56.70;;;;;;5039953;28;19921;-60
2022/08/04 03:18:31;;;;;;;;;;;28.40;56.90;;;;;;5044565;28;20000;-60
2022/08/04 03:21:15;;;;;;;;;;;28.40;56.40;;;;;;5042542;28;19913;-60
2022/08/04 03:23:43;;;;;;;;;;;28.40;56.70;;;;;;5037645;28;19917;-60
2022/08/04 03:26:08;;;;;;;;;;;28.40;56.80;;;;;;5040732;28;19920;-60
2022/08/04 03:28:34;;;;;;;;;;;28.40;56.40;;;;;;5041235;28;19917;-60
2022/08/04 03:31:14;;;;;;;;;;;28.40;56.80;;;;;;5040727;28;19921;-59
2022/08/04 03:33:44;;;;;;;;;;;28.30;56.90;;;;;;5041167;28;19960;-60
2022/08/04 03:36:39;;;;;;;;;;;28.30;56.80;;;;;;5058536;28;20280;-60
2022/08/04 03:39:14;;;;;;;;;;;28.30;56.60;;;;;;5023716;28;20007;-60
2022/08/04 03:41:58;;;;;;;;;;;28.30;57.00;;;;;;5040410;28;20444;-60
2022/08/04 03:44:30;;;;;;;;;;;28.30;57.10;;;;;;5042089;28;19944;-60
2022/08/04 03:46:59;;;;;;;;;;;28.30;56.60;;;;;;5039252;28;19980;-60
2022/08/04 03:49:51;;;;;;;;;;;28.30;56.60;;;;;;5037316;28;19982;-60
2022/08/04 03:55:28;;;;;;;;;;;28.30;57.00;;;;;;5044003;28;19927;-60
2022/08/04 03:58:12;;;;;;;;;;;28.20;56.80;;;;;;5041642;28;20003;-60
2022/08/04 04:00:38;;;;;;;;;;;28.20;57.10;;;;;;5046720;28;19912;-60
2022/08/04 04:03:22;;;;;;;;;;;28.20;57.30;;;;;;5039921;28;19917;-60
2022/08/04 04:05:57;;;;;;;;;;;28.20;57.40;;;;;;5042183;28;20014;-60
2022/08/04 04:08:34;;;;;;;;;;;28.10;57.30;;;;;;5041476;28;19913;-60
2022/08/04 04:11:18;;;;;;;;;;;28.10;57.30;;;;;;5042538;28;19956;-60
2022/08/04 04:13:53;;;;;;;;;;;28.10;57.20;;;;;;5037152;28;19925;-60
2022/08/04 04:16:19;;;;;;;;;;;28.10;57.20;;;;;;5039233;28;19923;-60
2022/08/04 04:18:51;;;;;;;;;;;28.20;57.30;;;;;;5040711;28;19916;-60
2022/08/04 04:21:16;;;;;;;;;;;28.10;57.10;;;;;;5037496;28;19917;-60
2022/08/04 04:23:54;;;;;;;;;;;28.20;57.00;;;;;;5042978;28;20258;-60
2022/08/04 04:26:26;;;;;;;;;;;28.20;57.10;;;;;;5042497;28;19917;-60
2022/08/04 04:29:21;;;;;;;;;;;28.20;57.30;;;;;;5037618;28;19917;-60
2022/08/04 04:32:07;;;;;;;;;;;28.10;57.70;;;;;;4990384;28;19914;-60
2022/08/04 04:34:51;;;;;;;;;;;28.00;58.10;;;;;;5026802;28;19944;-60
2022/08/04 04:37:36;;;;;;;;;;;27.90;58.10;;;;;;5036658;28;19913;-59
2022/08/04 04:40:01;;;;;;;;;;;27.90;58.00;;;;;;5038629;28;19966;-60
2022/08/04 04:42:39;;;;;;;;;;;28.00;57.70;;;;;;5039165;28;19913;-60
2022/08/04 04:45:09;;;;;;;;;;;28.00;57.60;;;;;;5040629;28;19921;-60
2022/08/04 04:47:53;;;;;;;;;;;28.10;57.70;;;;;;5040246;28;19917;-60
2022/08/04 04:50:27;;;;;;;;;;;28.10;57.90;;;;;;5038438;28;19917;-60
2022/08/04 04:52:54;;;;;;;;;;;28.00;57.70;;;;;;5054320;28;19966;-60
2022/08/04 04:55:22;;;;;;;;;;;28.00;59.00;;;;;;5041063;28;19924;-60
2022/08/04 04:57:51;;;;;;;;;;;27.80;58.60;;;;;;5041691;28;19916;-60
2022/08/04 05:00:17;;;;;;;;;;;27.60;58.90;;;;;;5040343;28;19954;-60
2022/08/04 05:02:42;;;;;;;;;;;27.60;59.30;;;;;;5039335;28;20050;-60
2022/08/04 05:05:19;;;;;;;;;;;27.50;59.70;;;;;;5041792;28;19917;-60
2022/08/04 05:08:01;;;;;;;;;;;27.40;59.80;;;;;;5037305;28;19916;-60
2022/08/04 05:10:36;;;;;;;;;;;27.20;60.70;;;;;;5039780;28;19919;-59
2022/08/04 05:13:21;;;;;;;;;;;27.10;60.80;;;;;;5040627;28;20058;-60
2022/08/04 05:15:46;;;;;;;;;;;27.00;61.30;;;;;;5039202;28;19956;-60
2022/08/04 05:18:13;;;;;;;;;;;26.90;61.60;;;;;;5041268;28;19952;-59
2022/08/04 05:20:42;;;;;;;;;;;26.90;61.70;;;;;;5041640;28;19921;-60
2022/08/04 05:23:10;;;;;;;;;;;26.90;62.00;;;;;;5042092;28;19917;-60
2022/08/04 05:25:36;;;;;;;;;;;26.80;62.00;;;;;;5044073;28;20303;-60
2022/08/04 05:28:15;;;;;;;;;;;26.80;62.10;;;;;;5060645;28;19913;-60
2022/08/04 05:30:49;;;;;;;;;;;26.90;62.40;;;;;;5041328;28;19917;-60
2022/08/04 05:33:41;;;;;;;;;;;26.70;62.90;;;;;;5045863;28;19913;-60
2022/08/04 05:36:09;;;;;;;;;;;26.60;63.00;;;;;;5027305;28;19920;-60
2022/08/04 05:38:36;;;;;;;;;;;26.70;62.90;;;;;;5042940;28;19916;-60
2022/08/04 05:41:01;;;;;;;;;;;26.70;62.80;;;;;;5045762;28;20320;-60
2022/08/04 05:43:27;;;;;;;;;;;26.80;63.00;;;;;;5041776;28;19921;-60
2022/08/04 05:45:52;;;;;;;;;;;26.80;62.80;;;;;;5047184;28;19919;-60
2022/08/04 05:48:18;;;;;;;;;;;26.90;62.60;;;;;;5045599;28;19916;-60
2022/08/04 05:50:46;;;;;;;;;;;27.10;62.20;;;;;;5047052;28;19921;-60
2022/08/04 05:53:12;;;;;;;;;;;27.10;61.90;;;;;;5041824;28;19927;-60
2022/08/04 05:55:37;;;;;;;;;;;27.10;61.80;;;;;;5043391;28;19917;-60
2022/08/04 05:58:03;;;;;;;;;;;27.00;61.90;;;;;;5043657;28;19959;-60
2022/08/04 06:00:28;;;;;;;;;;;27.00;62.30;;;;;;5042745;28;19917;-60
2022/08/04 06:02:54;;;;;;;;;;;27.00;62.40;;;;;;5024758;28;20003;-59
2022/08/04 06:05:20;;;;;;;;;;;26.90;62.50;;;;;;5044357;28;19917;-60
2022/08/04 06:07:45;;;;;;;;;;;26.90;62.60;;;;;;5044213;28;20288;-59
2022/08/04 06:10:11;;;;;;;;;;;26.90;62.70;;;;;;5039535;28;20066;-60
2022/08/04 06:12:41;;;;;;;;;;;26.80;62.90;;;;;;5043501;28;20031;-60
2022/08/04 06:15:06;;;;;;;;;;;26.60;63.50;;;;;;5040773;28;20385;-60
2022/08/04 06:17:33;;;;;;;;;;;26.60;63.70;;;;;;5038151;28;19917;-61
2022/08/04 06:19:59;;;;;;;;;;;26.70;63.80;;;;;;5059288;28;19990;-59
2022/08/04 06:22:25;;;;;;;;;;;26.60;63.70;;;;;;5045616;28;19913;-60
2022/08/04 06:24:51;;;;;;;;;;;26.70;63.60;;;;;;5041116;28;19920;-60
2022/08/04 06:27:16;;;;;;;;;;;26.80;63.40;;;;;;5039836;28;19913;-60
2022/08/04 06:29:42;;;;;;;;;;;27.00;63.00;;;;;;5038724;28;19999;-60
2022/08/04 06:32:23;;;;;;;;;;;27.00;62.80;;;;;;5042465;28;19913;-60
2022/08/04 06:34:50;;;;;;;;;;;27.00;62.80;;;;;;5041926;28;19925;-60
2022/08/04 06:37:18;;;;;;;;;;;27.00;62.60;;;;;;5057091;28;20020;-60
2022/08/04 06:39:43;;;;;;;;;;;27.00;62.70;;;;;;5044310;28;19956;-59
2022/08/04 06:42:08;;;;;;;;;;;27.00;62.60;;;;;;5042699;28;20451;-59
2022/08/04 06:44:34;;;;;;;;;;;27.10;62.60;;;;;;5039403;28;20373;-60
2022/08/04 06:46:59;;;;;;;;;;;27.10;62.70;;;;;;5042584;28;19916;-59
2022/08/04 06:49:25;;;;;;;;;;;27.10;62.30;;;;;;5042130;28;19913;-59
2022/08/04 06:51:50;;;;;;;;;;;27.20;62.30;;;;;;5059332;28;20364;-60
2022/08/04 06:54:16;;;;;;;;;;;27.30;62.10;;;;;;5042458;28;20381;-60
2022/08/04 06:56:42;;;;;;;;;;;27.30;62.00;;;;;;5045397;28;20422;-60
2022/08/04 06:59:07;;;;;;;;;;;27.30;62.10;;;;;;5042206;28;19913;-60
2022/08/04 07:01:33;;;;;;;;;;;27.30;62.10;;;;;;5045734;28;19935;-60
2022/08/04 07:03:59;;;;;;;;;;;27.30;62.40;;;;;;5055522;28;19920;-60
2022/08/04 07:06:24;;;;;;;;;;;27.30;62.00;;;;;;5036137;28;19952;-61
2022/08/04 07:08:50;;;;;;;;;;;27.40;62.10;;;;;;5044032;28;19913;-61
2022/08/04 07:11:15;;;;;;;;;;;27.40;62.20;;;;;;5054569;28;20296;-60
2022/08/04 07:13:42;;;;;;;;;;;27.40;61.90;;;;;;5037259;28;19921;-60
2022/08/04 07:16:07;;;;;;;;;;;27.50;61.90;;;;;;5040694;28;19914;-60
2022/08/04 07:18:33;;;;;;;;;;;27.50;61.80;;;;;;5041703;28;19916;-59
2022/08/04 07:20:58;;;;;;;;;;;27.60;61.70;;;;;;5043069;28;20070;-61
2022/08/04 07:23:24;;;;;;;;;;;27.60;61.60;;;;;;5042392;28;19995;-60
2022/08/04 07:25:51;;;;;;;;;;;27.60;61.40;;;;;;5039940;28;19925;-60
2022/08/04 07:28:16;;;;;;;;;;;27.60;61.80;;;;;;5049387;28;19912;-60
2022/08/04 07:30:42;;;;;;;;;;;27.60;61.70;;;;;;5047991;28;19932;-61
2022/08/04 07:33:08;;;;;;;;;;;27.50;61.70;;;;;;5044583;28;20637;-60
2022/08/04 07:35:33;;;;;;;;;;;27.50;61.50;;;;;;5042216;28;20015;-60
2022/08/04 07:37:59;;;;;;;;;;;27.50;61.70;;;;;;5047941;28;20010;-60
2022/08/04 07:40:24;;;;;;;;;;;27.40;61.90;;;;;;5045873;28;19916;-61
2022/08/04 07:42:49;;;;;;;;;;;27.40;62.20;;;;;;5064389;28;19913;-61
2022/08/04 07:45:16;;;;;;;;;;;27.40;62.40;;;;;;5044154;28;20424;-60
2022/08/04 07:47:42;;;;;;;;;;;27.50;62.30;;;;;;5047927;28;19920;-60
2022/08/04 07:50:11;;;;;;;;;;;27.50;62.30;;;;;;5048444;28;20356;-60
2022/08/04 07:52:37;;;;;;;;;;;27.60;62.00;;;;;;5046853;28;19917;-60
2022/08/04 07:55:02;;;;;;;;;;;27.70;61.80;;;;;;5048656;28;19917;-60
2022/08/04 07:57:28;;;;;;;;;;;27.80;61.20;;;;;;5046959;28;19917;-60
2022/08/04 07:59:54;;;;;;;;;;;27.90;61.20;;;;;;5052980;28;20288;-60
2022/08/04 08:02:20;;;;;;;;;;;28.00;61.30;;;;;;5045426;28;19970;-61
2022/08/04 08:04:46;;;;;;;;;;;28.00;60.80;;;;;;5045812;28;20333;-61
2022/08/04 08:07:11;;;;;;;;;;;28.10;60.90;;;;;;5047218;28;20012;-61
2022/08/04 08:09:37;;;;;;;;;;;28.20;60.20;;;;;;5045669;28;20669;-61
2022/08/04 08:12:02;;;;;;;;;;;28.30;59.80;;;;;;5044490;28;20357;-61
2022/08/04 08:14:29;;;;;;;;;;;28.30;59.50;;;;;;5042307;28;20399;-62
2022/08/04 08:16:54;;;;;;;;;;;28.40;59.30;;;;;;5042382;28;19940;-60
2022/08/04 08:19:20;;;;;;;;;;;28.40;58.90;;;;;;5045845;28;20365;-61
2022/08/04 08:21:46;;;;;;;;;;;28.50;58.60;;;;;;5043688;28;19913;-62
2022/08/04 08:24:12;;;;;;;;;;;28.50;57.40;;;;;;5044196;28;19968;-62
2022/08/04 08:26:38;;;;;;;;;;;28.60;56.90;;;;;;5041492;28;19913;-61
2022/08/04 08:29:03;;;;;;;;;;;28.80;55.60;;;;;;5044843;28;19913;-61
2022/08/04 08:31:29;;;;;;;;;;;28.80;55.40;;;;;;5042971;28;19927;-61
2022/08/04 08:33:55;;;;;;;;;;;28.90;55.00;;;;;;5047447;28;19921;-62
2022/08/04 08:36:32;;;;;;;;;;;28.90;54.60;;;;;;5051033;28;19935;-61
2022/08/04 08:39:00;;;;;;;;;;;29.00;54.70;;;;;;5047550;28;20289;-61
2022/08/04 08:41:34;;;;;;;;;;;29.00;54.90;;;;;;5050877;28;20364;-61
2022/08/04 08:44:03;;;;;;;;;;;29.00;54.40;;;;;;5045815;28;19927;-62
2022/08/04 08:46:32;;;;;;;;;;;29.10;54.40;;;;;;5051124;28;19909;-61
2022/08/04 08:49:06;;;;;;;;;;;29.10;54.20;;;;;;5048637;28;19913;-61
2022/08/04 08:51:37;;;;;;;;;;;29.30;52.50;;;;;;5052887;28;19916;-62
2022/08/04 08:54:03;;;;;;;;;;;29.40;52.50;;;;;;5050377;28;19955;-61
2022/08/04 08:56:47;;;;;;;;;;;29.50;52.40;;;;;;5054933;28;20345;-61
2022/08/04 08:59:18;;;;;;;;;;;29.50;52.30;;;;;;5046749;28;20017;-62
2022/08/04 09:01:44;;;;;;;;;;;29.50;52.70;;;;;;5053589;28;20357;-61
2022/08/04 09:04:25;;;;;;;;;;;29.50;52.50;;;;;;5054139;28;19917;-61
2022/08/04 09:07:09;;;;;;;;;;;29.60;52.30;;;;;;5047930;28;20003;-61
2022/08/04 09:09:53;;;;;;;;;;;29.70;52.40;;;;;;5052634;28;19964;-64
2022/08/04 09:12:37;;;;;;;;;;;29.70;52.20;;;;;;5049084;28;19913;-64
2022/08/04 09:15:21;;;;;;;;;;;29.80;52.50;;;;;;5050172;28;19916;-64
2022/08/04 09:17:51;;;;;;;;;;;29.90;51.70;;;;;;5052726;28;19947;-64
2022/08/04 09:20:26;;;;;;;;;;;30.00;51.50;;;;;;5055176;28;19939;-64
2022/08/04 09:23:18;;;;;;;;;;;30.10;51.80;;;;;;5053885;28;20369;-63
2022/08/04 09:26:01;;;;;;;;;;;30.00;52.10;;;;;;5029271;28;19983;-64
2022/08/04 09:28:28;;;;;;;;;;;30.10;51.70;;;;;;5051107;28;19909;-64
2022/08/04 09:30:56;;;;;;;;;;;30.20;51.90;;;;;;5049278;28;20322;-64
2022/08/04 09:33:41;;;;;;;;;;;30.20;51.70;;;;;;5068273;28;19970;-63
2022/08/04 09:36:12;;;;;;;;;;;30.30;50.10;;;;;;5051973;28;19940;-64
2022/08/04 09:38:50;;;;;;;;;;;30.30;50.50;;;;;;5047883;28;19963;-64
2022/08/04 09:41:35;;;;;;;;;;;30.40;49.20;;;;;;5052076;28;19956;-64
2022/08/04 09:44:01;;;;;;;;;;;30.40;48.20;;;;;;5055801;28;19999;-63
2022/08/04 09:46:28;;;;;;;;;;;30.60;45.80;;;;;;5048052;28;19909;-63
2022/08/04 09:49:13;;;;;;;;;;;30.60;45.00;;;;;;5049597;28;20007;-63
2022/08/04 09:51:54;;;;;;;;;;;30.70;45.80;;;;;;5054541;28;19917;-64
2022/08/04 09:54:21;;;;;;;;;;;30.70;45.70;;;;;;5045367;28;19950;-63
2022/08/04 09:57:05;;;;;;;;;;;30.80;45.70;;;;;;5048622;28;20409;-63
2022/08/04 09:59:33;;;;;;;;;;;30.70;46.30;;;;;;5045395;28;19917;-64
2022/08/04 10:02:01;;;;;;;;;;;30.70;46.70;;;;;;5044031;28;20414;-63
2022/08/04 10:04:28;;;;;;;;;;;30.70;46.80;;;;;;5046384;28;19968;-64
2022/08/04 10:07:05;;;;;;;;;;;30.80;47.10;;;;;;5047961;28;19913;-64
2022/08/04 10:09:37;;;;;;;;;;;30.90;47.60;;;;;;5052691;28;19962;-65
2022/08/04 10:12:06;;;;;;;;;;;30.90;47.20;;;;;;5049601;28;19955;-64
2022/08/04 10:14:55;;;;;;;;;;;31.00;47.00;;;;;;5045885;28;19920;-64
2022/08/04 10:17:23;;;;;;;;;;;31.10;47.00;;;;;;5038857;28;19927;-64
2022/08/04 10:20:02;;;;;;;;;;;31.00;47.40;;;;;;5048269;28;19913;-63
2022/08/04 10:22:42;;;;;;;;;;;31.00;47.40;;;;;;5054778;28;19913;-63
2022/08/04 10:25:26;;;;;;;;;;;31.10;47.00;;;;;;5049346;28;20424;-64
2022/08/04 10:27:56;;;;;;;;;;;31.10;47.00;;;;;;5053751;28;19919;-64
2022/08/04 10:30:22;;;;;;;;;;;31.00;46.80;;;;;;5056525;28;20036;-63
2022/08/04 10:32:52;;;;;;;;;;;31.10;46.60;;;;;;5050571;28;20015;-64
2022/08/04 10:35:22;;;;;;;;;;;31.00;46.80;;;;;;5049790;28;19917;-64
2022/08/04 10:37:51;;;;;;;;;;;31.10;46.00;;;;;;5040393;28;19913;-65
2022/08/04 10:40:39;;;;;;;;;;;31.10;46.50;;;;;;5047163;28;19917;-65
2022/08/04 10:43:23;;;;;;;;;;;31.10;46.30;;;;;;5048612;28;19916;-65
2022/08/04 10:46:15;;;;;;;;;;;31.30;45.20;;;;;;5050088;28;19912;-65
2022/08/04 10:48:40;;;;;;;;;;;31.40;44.80;;;;;;5041959;28;19912;-65
2022/08/04 10:51:21;;;;;;;;;;;31.50;44.50;;;;;;5051976;28;20353;-65
2022/08/04 10:53:52;;;;;;;;;;;31.60;43.20;;;;;;5050473;28;19909;-63
2022/08/04 10:56:33;;;;;;;;;;;31.60;43.40;;;;;;5049633;28;19909;-63
2022/08/04 10:59:03;;;;;;;;;;;31.80;43.10;;;;;;5052894;28;19909;-63
2022/08/04 11:01:30;;;;;;;;;;;31.90;43.10;;;;;;5052008;28;19932;-63
2022/08/04 11:03:56;;;;;;;;;;;31.80;42.50;;;;;;5053070;28;20050;-63
2022/08/04 11:06:22;;;;;;;;;;;32.00;40.90;;;;;;5051742;28;20411;-63
2022/08/04 11:08:49;;;;;;;;;;;32.10;39.90;;;;;;5042986;28;19919;-63
2022/08/04 11:11:31;;;;;;;;;;;32.20;39.70;;;;;;5061922;28;20269;-65
2022/08/04 11:13:58;;;;;;;;;;;32.50;39.30;;;;;;5041626;28;20294;-63
2022/08/04 11:16:25;;;;;;;;;;;32.50;38.60;;;;;;5040908;28;19920;-63
2022/08/04 11:18:53;;;;;;;;;;;32.50;39.50;;;;;;5047766;28;19913;-63
2022/08/04 11:21:20;;;;;;;;;;;32.40;38.80;;;;;;5043579;28;20241;-63
2022/08/04 11:23:47;;;;;;;;;;;32.60;38.10;;;;;;5059510;28;20004;-63
2022/08/04 11:26:14;;;;;;;;;;;32.60;36.80;;;;;;5043117;28;19921;-63
2022/08/04 11:28:57;;;;;;;;;;;32.60;36.80;;;;;;5045808;28;19948;-63
2022/08/04 11:31:24;;;;;;;;;;;32.50;36.70;;;;;;5046753;28;19932;-63
2022/08/04 11:33:59;;;;;;;;;;;32.40;36.90;;;;;;5043354;28;19928;-63
2022/08/04 11:36:29;;;;;;;;;;;32.50;37.10;;;;;;5043718;28;20438;-64
2022/08/04 11:39:00;;;;;;;;;;;32.40;37.30;;;;;;5039524;28;19917;-64
2022/08/04 11:41:30;;;;;;;;;;;32.40;37.60;;;;;;5043910;28;19913;-63
2022/08/04 11:43:57;;;;;;;;;;;32.50;37.40;;;;;;5038950;28;19964;-64
2022/08/04 11:46:35;;;;;;;;;;;32.60;37.60;;;;;;5043961;28;19913;-64
2022/08/04 11:49:10;;;;;;;;;;;32.70;37.20;;;;;;5036162;28;19958;-63
2022/08/04 11:51:36;;;;;;;;;;;32.70;36.50;;;;;;5041170;28;20383;-64
2022/08/04 11:54:01;;;;;;;;;;;32.80;36.60;;;;;;5044358;28;19921;-64
2022/08/04 11:56:26;;;;;;;;;;;32.80;36.50;;;;;;5043505;28;19917;-63
2022/08/04 11:58:52;;;;;;;;;;;32.80;36.90;;;;;;5033747;28;20019;-63
2022/08/04 12:01:27;;;;;;;;;;;33.10;36.90;;;;;;5053387;28;19956;-64
2022/08/04 12:04:02;;;;;;;;;;;33.20;35.40;;;;;;5044260;28;19965;-63
2022/08/04 12:06:30;;;;;;;;;;;33.10;35.50;;;;;;5041571;28;20011;-63
2022/08/04 12:09:03;;;;;;;;;;;33.10;35.30;;;;;;5036658;28;19913;-63
2022/08/04 12:11:34;;;;;;;;;;;33.20;35.20;;;;;;5038967;28;19917;-63
2022/08/04 12:14:05;;;;;;;;;;;33.10;33.80;;;;;;5042374;28;19937;-63
2022/08/04 12:16:34;;;;;;;;;;;33.30;33.00;;;;;;5043969;28;20042;-62
2022/08/04 12:19:05;;;;;;;;;;;33.40;33.00;;;;;;5044049;28;19921;-62
2022/08/04 12:21:33;;;;;;;;;;;33.20;33.00;;;;;;5037967;28;19924;-62
2022/08/04 12:24:07;;;;;;;;;;;33.30;32.70;;;;;;5030382;28;19921;-62
2022/08/04 12:26:37;;;;;;;;;;;33.10;33.20;;;;;;5041153;28;19917;-63
2022/08/04 12:29:02;;;;;;;;;;;32.90;33.60;;;;;;5043092;28;20411;-62
2022/08/04 12:31:40;;;;;;;;;;;32.80;33.90;;;;;;5040455;28;19913;-62
2022/08/04 12:34:07;;;;;;;;;;;32.70;34.40;;;;;;5044958;28;19936;-61
2022/08/04 12:36:39;;;;;;;;;;;32.60;34.50;;;;;;5034160;28;19909;-62
2022/08/04 12:39:13;;;;;;;;;;;32.60;34.70;;;;;;5049520;28;19967;-63
2022/08/04 12:41:41;;;;;;;;;;;32.60;34.60;;;;;;5044940;28;19920;-62
2022/08/04 12:44:08;;;;;;;;;;;32.60;34.80;;;;;;5041335;28;19952;-62
2022/08/04 12:46:34;;;;;;;;;;;32.50;35.10;;;;;;5044370;28;19913;-63
2022/08/04 12:49:00;;;;;;;;;;;32.50;35.20;;;;;;5043409;28;20004;-63
2022/08/04 12:51:26;;;;;;;;;;;32.50;35.10;;;;;;5041844;28;20467;-63
2022/08/04 12:53:51;;;;;;;;;;;32.50;35.30;;;;;;5044072;28;20012;-63
2022/08/04 12:56:17;;;;;;;;;;;32.60;35.30;;;;;;5036338;28;19925;-63
2022/08/04 12:58:43;;;;;;;;;;;32.60;35.60;;;;;;5042622;28;19995;-63
2022/08/04 13:01:16;;;;;;;;;;;32.50;35.10;;;;;;5051135;28;19909;-63
2022/08/04 13:03:46;;;;;;;;;;;32.50;35.30;;;;;;5045639;28;19921;-63
2022/08/04 13:06:12;;;;;;;;;;;32.50;35.40;;;;;;5045115;28;19917;-63
2022/08/04 13:08:38;;;;;;;;;;;32.60;35.30;;;;;;5046133;28;19921;-62
2022/08/04 13:11:04;;;;;;;;;;;32.70;35.30;;;;;;5043640;28;19921;-63
2022/08/04 13:13:30;;;;;;;;;;;32.70;35.60;;;;;;5043362;28;19929;-63
2022/08/04 13:15:59;;;;;;;;;;;32.50;35.70;;;;;;5042473;28;19947;-62
2022/08/04 13:18:25;;;;;;;;;;;32.60;35.00;;;;;;5043472;28;20020;-63
2022/08/04 13:20:51;;;;;;;;;;;32.70;34.40;;;;;;5043497;28;20367;-62
2022/08/04 13:23:16;;;;;;;;;;;32.60;34.50;;;;;;5041433;28;20003;-63
2022/08/04 13:25:43;;;;;;;;;;;32.60;34.80;;;;;;5040922;28;19913;-63
2022/08/04 13:28:12;;;;;;;;;;;32.60;35.00;;;;;;5038932;28;19921;-62
2022/08/04 13:30:37;;;;;;;;;;;32.70;35.00;;;;;;5043408;28;19917;-63
2022/08/04 13:33:03;;;;;;;;;;;32.80;34.90;;;;;;5043273;28;20356;-63
2022/08/04 13:35:29;;;;;;;;;;;32.70;35.10;;;;;;5041179;28;20569;-63
2022/08/04 13:37:54;;;;;;;;;;;32.70;35.30;;;;;;5043015;28;20339;-63
2022/08/04 13:40:20;;;;;;;;;;;32.70;35.10;;;;;;5049688;28;19932;-62
2022/08/04 13:42:46;;;;;;;;;;;32.70;35.20;;;;;;5046179;28;20269;-63
2022/08/04 13:45:11;;;;;;;;;;;32.70;35.40;;;;;;5045925;28;19917;-62
2022/08/04 13:47:38;;;;;;;;;;;32.50;35.50;;;;;;5045612;28;19913;-63
2022/08/04 13:50:09;;;;;;;;;;;32.50;35.60;;;;;;5046791;28;20392;-63
2022/08/04 13:52:35;;;;;;;;;;;32.40;35.50;;;;;;5044981;28;19927;-63
2022/08/04 13:55:00;;;;;;;;;;;32.40;36.50;;;;;;5051718;28;19927;-64
2022/08/04 13:57:29;;;;;;;;;;;32.40;35.80;;;;;;5049978;28;19913;-63
2022/08/04 13:59:57;;;;;;;;;;;32.30;36.00;;;;;;5052571;28;19916;-63
2022/08/04 14:02:33;;;;;;;;;;;32.20;35.90;;;;;;5051457;28;19916;-63
2022/08/04 14:05:01;;;;;;;;;;;32.20;35.90;;;;;;5053770;28;19920;-64
2022/08/04 14:07:26;;;;;;;;;;;32.30;35.60;;;;;;5050676;28;20262;-63
2022/08/04 14:09:51;;;;;;;;;;;32.50;35.80;;;;;;5046721;28;19920;-63
2022/08/04 14:12:17;;;;;;;;;;;32.30;35.80;;;;;;5047408;28;19917;-63
2022/08/04 14:14:46;;;;;;;;;;;32.30;36.00;;;;;;5046176;28;20438;-63
2022/08/04 14:17:12;;;;;;;;;;;32.30;36.20;;;;;;5046461;28;19929;-63
2022/08/04 14:19:48;;;;;;;;;;;32.30;36.30;;;;;;5045560;28;19970;-63
2022/08/04 14:22:29;;;;;;;;;;;32.40;36.20;;;;;;5042424;28;20599;-63
2022/08/04 14:24:58;;;;;;;;;;;32.40;36.50;;;;;;5042843;28;19916;-64
2022/08/04 14:27:24;;;;;;;;;;;32.40;36.50;;;;;;5046798;28;20348;-63
2022/08/04 14:29:49;;;;;;;;;;;32.40;36.50;;;;;;5046274;28;19956;-63
2022/08/04 14:32:14;;;;;;;;;;;32.40;36.60;;;;;;5042171;28;20241;-63
2022/08/04 14:34:41;;;;;;;;;;;32.40;36.50;;;;;;5048790;28;20258;-63
2022/08/04 14:37:07;;;;;;;;;;;32.50;36.50;;;;;;5042189;28;19957;-63
2022/08/04 14:39:42;;;;;;;;;;;32.50;36.10;;;;;;5047740;28;19913;-63